Grants, NM (87020)

11:04 AM MST on February 13, 2016 (GMT -0700)
Grants-Milan Municipal | | Change Station
CLOSE
Current Station
Airport
Location: Grants-Milan,
Elevation: 6519 ft
Nearby Weather Stations

Elev 6519 ft 35.17 °N, 107.90 °W | Updated 9 minutes ago

Clear
Clear
53 °F
Feels Like 53 °F
N
0
Wind Variable Wind from North

Today
High -- | Low -- °F
--% Chance of Precip.
Yesterday
High -- | Low -- °F
Precip. -- in
Pressure 30.32 in
Visibility 10.0 miles
Clouds Clear
Dew Point 17 °F
Humidity 24%
Rainfall 0.00 in
Snow Depth Not available.
7:00 AM 5:51 PM
Waxing Crescent, 32% visible
METAR KGNT 131755Z AUTO 00000KT 10SM CLR 12/M08 A3032 RMK AO2 T01181083 10118 21096
Pressure 30.32 in
Visibility 10.0 miles
Clouds Clear
Dew Point 17 °F
Humidity 24%
Rainfall 0.00 in
Snow Depth Not available.
7:00 AM 5:51 PM
Waxing Crescent, 32% visible
METAR KGNT 131755Z AUTO 00000KT 10SM CLR 12/M08 A3032 RMK AO2 T01181083 10118 21096

10-Day Weather Forecast

Almanac

Astronomy

Feb. 13, 2016 Rise Set
Actual Time
Civil Twilight
Nautical Twilight
Astronomical Twilight
Moon
Length of Visible Light
Length of Day
Tomorrow will be .
, % of the Moon is Illuminated

Today's Extremes

State Highs State Lows

Community

WunderPhotos

Upload Photos

1,892,631 photos uploaded!

WunderBlog® & News

Nearby

Air Quality

  Air Quality AQ Index Pollutant
Not available.

Snow Depth

Station Depth Elevation

Earthquake Activity

City Distance Mag. Time & Date
Minimum magnitude displayed is 2.5.

Coastal Water Temperatures

Place Temperature

Stations

Nearby Weather Stations

Station Location Temp. Windchill Dew Point Humidity Wind Precip. Elev Updated Type
                   

Watches & Warnings

There are currently no watches in effect.